Time;durP1;ratioP1;P1;durP2;ratioP2;P2;SDS_P1;SDS_P2;PMS_P1;PMS_P2;Temp;Humidity;BMP_temperature;BMP_pressure;BME280_temperature;BME280_humidity;BME280_pressure;Samples;Min_cycle;Max_cycle;Signal;HPM_P1;HPM_P2
2022/11/01 00:00:18;;;;;;;13.88;7.10;;;;;;;;;;4960343;28;20027;-86
2022/11/01 00:02:44;;;;;;;13.18;6.60;;;;;;;;;;4983447;28;20045;-86
2022/11/01 00:05:09;;;;;;;11.00;7.15;;;;;;;;;;4969340;28;20455;-86
2022/11/01 00:07:35;;;;;;;13.82;6.32;;;;;;;;;;4968546;28;20049;-84
2022/11/01 00:10:00;;;;;;;20.75;7.10;;;;;;;;;;4971822;28;20029;-87
2022/11/01 00:12:26;;;;;;;14.10;5.88;;;;;;;;;;4967155;28;20389;-88
2022/11/01 00:14:51;;;;;;;13.13;6.75;;;;;;;;;;4966795;28;20105;-87
2022/11/01 00:17:19;;;;;;;10.35;6.18;;;;;;;;;;4970828;28;20034;-86
2022/11/01 00:19:44;;;;;;;14.88;5.78;;;;;;;;;;4980443;28;20026;-84
2022/11/01 00:22:09;;;;;;;9.27;5.40;;;;;;;;;;4982662;28;20018;-87
2022/11/01 00:24:35;;;;;;;10.55;5.72;;;;;;;;;;4966786;28;20026;-86
2022/11/01 00:27:00;;;;;;;20.45;6.80;;;;;;;;;;4983774;28;20078;-86
2022/11/01 00:29:26;;;;;;;12.63;5.70;;;;;;;;;;4970326;28;20026;-89
2022/11/01 00:31:51;;;;;;;9.18;5.55;;;;;;;;;;4978630;28;21139;-85
2022/11/01 00:34:17;;;;;;;10.48;6.43;;;;;;;;;;4982312;28;20053;-84
2022/11/01 00:36:42;;;;;;;14.40;6.93;;;;;;;;;;4986991;28;20038;-87
2022/11/01 00:39:12;;;;;;;22.55;6.45;;;;;;;;;;4965295;28;20022;-88
2022/11/01 00:41:37;;;;;;;9.60;5.57;;;;;;;;;;4971126;28;20117;-85
2022/11/01 00:44:03;;;;;;;16.08;7.20;;;;;;;;;;4981697;28;20068;-88
2022/11/01 00:46:29;;;;;;;11.57;6.78;;;;;;;;;;4986664;28;20577;-85
2022/11/01 00:48:55;;;;;;;14.07;6.35;;;;;;;;;;4983306;28;20026;-87
2022/11/01 00:51:20;;;;;;;20.30;7.13;;;;;;;;;;4981388;28;20031;-85
2022/11/01 00:53:45;;;;;;;11.88;6.32;;;;;;;;;;4985427;28;20109;-87
2022/11/01 00:56:11;;;;;;;15.27;7.38;;;;;;;;;;4980579;28;20645;-87
2022/11/01 00:58:36;;;;;;;19.45;7.50;;;;;;;;;;4983662;28;20022;-86
2022/11/01 01:01:02;;;;;;;19.63;6.53;;;;;;;;;;4960458;28;20034;-84
2022/11/01 01:03:27;;;;;;;14.55;7.43;;;;;;;;;;4969376;28;20030;-86
2022/11/01 01:05:53;;;;;;;11.18;6.57;;;;;;;;;;4969171;28;20026;-85
2022/11/01 01:08:19;;;;;;;16.35;6.53;;;;;;;;;;4971780;28;20112;-87
2022/11/01 01:10:44;;;;;;;21.10;6.43;;;;;;;;;;4980158;28;20145;-87
2022/11/01 01:13:10;;;;;;;10.35;5.80;;;;;;;;;;4962471;28;20026;-85
2022/11/01 01:15:37;;;;;;;11.23;6.22;;;;;;;;;;4972557;28;20022;-84
2022/11/01 01:18:03;;;;;;;16.88;6.70;;;;;;;;;;4979029;28;20563;-86
2022/11/01 01:20:28;;;;;;;12.43;5.90;;;;;;;;;;4984288;28;20588;-85
2022/11/01 01:22:53;;;;;;;12.35;6.88;;;;;;;;;;4981345;28;20185;-86
2022/11/01 01:25:19;;;;;;;14.00;6.60;;;;;;;;;;4966318;28;20569;-87
2022/11/01 01:27:45;;;;;;;15.55;6.93;;;;;;;;;;4984356;28;20030;-83
2022/11/01 01:30:11;;;;;;;11.93;6.00;;;;;;;;;;4955323;28;20033;-86
2022/11/01 01:32:36;;;;;;;12.93;6.72;;;;;;;;;;4980148;28;20023;-85
2022/11/01 01:35:03;;;;;;;13.75;7.13;;;;;;;;;;4969065;28;20426;-86
2022/11/01 01:37:28;;;;;;;13.00;6.47;;;;;;;;;;4971309;28;20122;-86
2022/11/01 01:39:54;;;;;;;13.05;6.65;;;;;;;;;;4985012;28;20066;-87
2022/11/01 01:42:27;;;;;;;10.20;6.57;;;;;;;;;;4979547;28;20022;-85
2022/11/01 01:44:55;;;;;;;11.38;6.50;;;;;;;;;;4980196;28;20050;-86
2022/11/01 01:47:36;;;;;;;13.20;6.50;;;;;;;;;;4980315;28;20097;-87
2022/11/01 01:50:16;;;;;;;10.48;6.03;;;;;;;;;;4961013;28;20018;-83
2022/11/01 01:52:56;;;;;;;16.25;6.05;;;;;;;;;;4983320;28;20076;-86
2022/11/01 01:55:29;;;;;;;14.05;6.72;;;;;;;;;;4958380;28;20019;-86
2022/11/01 01:57:56;;;;;;;13.02;5.82;;;;;;;;;;4977059;28;20034;-88
2022/11/01 02:00:21;;;;;;;16.15;6.05;;;;;;;;;;4968117;28;20058;-86
2022/11/01 02:02:46;;;;;;;11.40;6.13;;;;;;;;;;4981041;28;20057;-88
2022/11/01 02:05:28;;;;;;;11.63;5.78;;;;;;;;;;4968034;28;20108;-86
2022/11/01 02:07:55;;;;;;;14.65;5.95;;;;;;;;;;4965888;28;20739;-86
2022/11/01 02:10:21;;;;;;;12.88;5.35;;;;;;;;;;4983393;28;20453;-86
2022/11/01 02:12:48;;;;;;;11.13;5.65;;;;;;;;;;4966826;28;20038;-85
2022/11/01 02:15:15;;;;;;;11.63;5.75;;;;;;;;;;4988356;28;20018;-87
2022/11/01 02:18:15;;;;;;;12.52;7.10;;;;;;;;;;4965404;28;20026;-86
2022/11/01 02:21:24;;;;;;;14.25;6.40;;;;;;;;;;4980575;28;20068;-84
2022/11/01 02:24:07;;;;;;;11.32;5.63;;;;;;;;;;4967467;28;20489;-86
2022/11/01 02:27:10;;;;;;;20.70;6.50;;;;;;;;;;4986861;28;20030;-86
2022/11/01 02:30:03;;;;;;;7.07;4.93;;;;;;;;;;4974325;28;20552;-84
2022/11/01 02:32:43;;;;;;;12.05;5.55;;;;;;;;;;4983918;28;20093;-85
2022/11/01 02:35:21;;;;;;;12.38;5.60;;;;;;;;;;4971346;28;20053;-84
2022/11/01 02:37:57;;;;;;;10.40;5.18;;;;;;;;;;4965529;28;20030;-87
2022/11/01 02:41:06;;;;;;;12.40;6.15;;;;;;;;;;4964409;28;20034;-86
2022/11/01 02:43:46;;;;;;;19.17;6.15;;;;;;;;;;4969017;28;20508;-85
2022/11/01 02:48:58;;;;;;;8.77;5.80;;;;;;;;;;4985847;28;20077;-86
2022/11/01 02:51:25;;;;;;;18.80;5.32;;;;;;;;;;4983736;28;20022;-87
2022/11/01 02:53:50;;;;;;;10.57;5.00;;;;;;;;;;4986686;28;20035;-84
2022/11/01 02:56:17;;;;;;;12.18;5.03;;;;;;;;;;4987207;28;20036;-86
2022/11/01 02:58:45;;;;;;;10.13;5.97;;;;;;;;;;4966486;28;20148;-86
2022/11/01 03:01:15;;;;;;;7.50;4.65;;;;;;;;;;4980712;28;20321;-85
2022/11/01 03:03:44;;;;;;;9.10;5.07;;;;;;;;;;4987761;28;20107;-86
2022/11/01 03:06:34;;;;;;;14.05;5.50;;;;;;;;;;4984253;28;20485;-86
2022/11/01 03:09:03;;;;;;;17.05;5.72;;;;;;;;;;4981292;28;20110;-85
2022/11/01 03:11:52;;;;;;;10.52;5.32;;;;;;;;;;4984581;28;20026;-87
2022/11/01 03:14:41;;;;;;;16.60;4.95;;;;;;;;;;4986127;28;20037;-86
2022/11/01 03:17:33;;;;;;;9.32;4.97;;;;;;;;;;4969544;28;20033;-87
2022/11/01 03:20:15;;;;;;;8.30;5.30;;;;;;;;;;4981660;28;20026;-86
2022/11/01 03:22:44;;;;;;;13.93;5.25;;;;;;;;;;4985746;28;20030;-87
2022/11/01 03:25:41;;;;;;;12.40;4.50;;;;;;;;;;4979736;28;20113;-84
2022/11/01 03:28:19;;;;;;;10.13;4.63;;;;;;;;;;4989612;28;20678;-83
2022/11/01 03:30:52;;;;;;;11.27;4.65;;;;;;;;;;4984333;28;20504;-88
2022/11/01 03:33:19;;;;;;;11.30;4.38;;;;;;;;;;4966459;28;20435;-87
2022/11/01 03:35:48;;;;;;;10.55;5.07;;;;;;;;;;4969936;28;20481;-83
2022/11/01 03:38:18;;;;;;;10.80;4.55;;;;;;;;;;4988912;28;20027;-88
2022/11/01 03:40:49;;;;;;;12.00;4.72;;;;;;;;;;4981530;28;20097;-87
2022/11/01 03:43:17;;;;;;;10.27;5.27;;;;;;;;;;4963732;28;20054;-90
2022/11/01 03:45:43;;;;;;;7.88;4.80;;;;;;;;;;4981117;28;20344;-88
2022/11/01 03:48:09;;;;;;;17.60;4.50;;;;;;;;;;4968794;28;20026;-87
2022/11/01 03:50:34;;;;;;;12.40;4.45;;;;;;;;;;4970263;28;20031;-86
2022/11/01 03:53:00;;;;;;;6.40;4.07;;;;;;;;;;4987078;28;20026;-89
2022/11/01 03:55:25;;;;;;;6.93;4.15;;;;;;;;;;4974074;28;20026;-86
2022/11/01 03:57:56;;;;;;;9.90;4.90;;;;;;;;;;4967862;28;20120;-84
2022/11/01 04:00:32;;;;;;;10.25;4.25;;;;;;;;;;4966865;28;20025;-89
2022/11/01 04:02:58;;;;;;;10.80;4.47;;;;;;;;;;4983728;28;20027;-87
2022/11/01 04:05:26;;;;;;;13.65;4.65;;;;;;;;;;4972135;28;20038;-83
2022/11/01 04:07:52;;;;;;;8.65;4.18;;;;;;;;;;5007587;28;20023;-84
2022/11/01 04:10:19;;;;;;;15.98;4.60;;;;;;;;;;4992296;28;20040;-85
2022/11/01 04:12:46;;;;;;;10.40;3.85;;;;;;;;;;4972001;28;20035;-87
2022/11/01 04:21:18;;;;;;;8.30;3.60;;;;;;;;;;4988241;28;20097;-87
2022/11/01 04:23:44;;;;;;;7.05;2.95;;;;;;;;;;4988252;28;20042;-88
2022/11/01 04:26:12;;;;;;;9.10;3.17;;;;;;;;;;4977196;28;20353;-88
2022/11/01 04:28:37;;;;;;;8.75;3.40;;;;;;;;;;4990025;28;20565;-85
2022/11/01 04:31:04;;;;;;;6.18;3.03;;;;;;;;;;4971086;28;20066;-86
2022/11/01 04:33:29;;;;;;;6.30;2.50;;;;;;;;;;4980654;28;20034;-86
2022/11/01 04:35:55;;;;;;;12.18;3.97;;;;;;;;;;4972078;28;20060;-85
2022/11/01 04:38:20;;;;;;;6.25;2.70;;;;;;;;;;4992079;28;20033;-88
2022/11/01 04:40:46;;;;;;;7.18;2.85;;;;;;;;;;4968599;28;20037;-85
2022/11/01 04:43:12;;;;;;;4.72;2.20;;;;;;;;;;4970648;28;20034;-87
2022/11/01 04:45:38;;;;;;;5.43;2.15;;;;;;;;;;4980923;28;20370;-88
2022/11/01 04:48:11;;;;;;;10.60;2.47;;;;;;;;;;4990887;28;20128;-88
2022/11/01 04:50:37;;;;;;;7.88;2.72;;;;;;;;;;4970264;28;20042;-85
2022/11/01 04:53:02;;;;;;;9.68;2.65;;;;;;;;;;4989105;28;20481;-86
2022/11/01 04:55:27;;;;;;;4.72;2.25;;;;;;;;;;4992798;28;20030;-88
2022/11/01 04:57:53;;;;;;;7.88;2.53;;;;;;;;;;4976088;28;20037;-85
2022/11/01 05:00:19;;;;;;;9.02;2.72;;;;;;;;;;4985137;28;20382;-83
2022/11/01 05:02:44;;;;;;;4.38;2.05;;;;;;;;;;4992042;28;20080;-87
2022/11/01 05:05:10;;;;;;;11.32;3.17;;;;;;;;;;4987175;28;20022;-87
2022/11/01 05:07:35;;;;;;;4.90;1.98;;;;;;;;;;4975658;28;20033;-87
2022/11/01 05:10:01;;;;;;;9.15;2.25;;;;;;;;;;4975348;28;20019;-83
2022/11/01 05:12:27;;;;;;;8.23;2.15;;;;;;;;;;4966228;28;20018;-87
2022/11/01 05:14:53;;;;;;;5.03;2.30;;;;;;;;;;4986597;28;20030;-88
2022/11/01 05:17:18;;;;;;;4.28;1.80;;;;;;;;;;4969210;28;20026;-87
2022/11/01 05:19:44;;;;;;;9.40;2.63;;;;;;;;;;4988173;28;21491;-84
2022/11/01 05:22:09;;;;;;;4.47;2.05;;;;;;;;;;4970793;28;20437;-84
2022/11/01 05:24:34;;;;;;;2.22;1.80;;;;;;;;;;4984849;28;20491;-85
2022/11/01 05:27:00;;;;;;;7.10;2.15;;;;;;;;;;4972779;28;20057;-85
2022/11/01 05:29:25;;;;;;;2.85;1.73;;;;;;;;;;4981964;28;20014;-87
2022/11/01 05:31:51;;;;;;;3.25;1.80;;;;;;;;;;4984774;28;20027;-86
2022/11/01 05:34:17;;;;;;;5.90;1.85;;;;;;;;;;4988158;28;20022;-86
2022/11/01 05:36:42;;;;;;;8.15;1.98;;;;;;;;;;4985577;28;20031;-87
2022/11/01 05:39:07;;;;;;;3.72;1.88;;;;;;;;;;4975269;28;20023;-88
2022/11/01 05:41:33;;;;;;;9.40;1.88;;;;;;;;;;4991812;28;20446;-86
2022/11/01 05:43:58;;;;;;;2.97;1.50;;;;;;;;;;4965134;28;20032;-87
2022/11/01 05:46:23;;;;;;;8.68;2.30;;;;;;;;;;4978706;28;20030;-86
2022/11/01 05:48:49;;;;;;;4.70;1.70;;;;;;;;;;4971995;28;20493;-87
2022/11/01 05:51:14;;;;;;;2.25;1.40;;;;;;;;;;4986153;28;20038;-85
2022/11/01 05:53:39;;;;;;;2.17;1.40;;;;;;;;;;4966184;28;20045;-86
2022/11/01 05:56:05;;;;;;;2.90;1.60;;;;;;;;;;4975183;28;20026;-86
2022/11/01 05:58:30;;;;;;;6.40;1.58;;;;;;;;;;4984191;28;20126;-86
2022/11/01 06:00:57;;;;;;;3.38;1.20;;;;;;;;;;4974842;28;20059;-87
2022/11/01 06:03:23;;;;;;;6.60;1.50;;;;;;;;;;4987685;28;20034;-87
2022/11/01 06:05:48;;;;;;;6.32;1.40;;;;;;;;;;4992602;28;20030;-86
2022/11/01 06:08:14;;;;;;;2.97;1.35;;;;;;;;;;4991873;28;20022;-86
2022/11/01 06:10:39;;;;;;;6.32;1.50;;;;;;;;;;4977748;28;20190;-86
2022/11/01 06:13:04;;;;;;;2.72;1.48;;;;;;;;;;4966490;28;20030;-86
2022/11/01 06:15:30;;;;;;;2.70;1.55;;;;;;;;;;4972455;28;20026;-88
2022/11/01 06:17:57;;;;;;;5.28;1.25;;;;;;;;;;4990832;28;20038;-86
2022/11/01 06:20:22;;;;;;;2.78;2.05;;;;;;;;;;4987635;28;20164;-87
2022/11/01 06:22:48;;;;;;;2.20;1.50;;;;;;;;;;4970726;28;20560;-85
2022/11/01 06:25:13;;;;;;;3.95;1.20;;;;;;;;;;4977008;28;20026;-87
2022/11/01 06:27:38;;;;;;;1.85;1.15;;;;;;;;;;4985607;28;20058;-87
2022/11/01 06:30:04;;;;;;;2.38;1.42;;;;;;;;;;4966314;28;20015;-87
2022/11/01 06:32:30;;;;;;;4.18;1.70;;;;;;;;;;4991430;28;20109;-85
2022/11/01 06:34:55;;;;;;;1.30;1.23;;;;;;;;;;4965598;28;20054;-87
2022/11/01 06:37:20;;;;;;;3.17;1.23;;;;;;;;;;4970778;28;20069;-86
2022/11/01 06:39:46;;;;;;;5.18;1.95;;;;;;;;;;4989640;28;20118;-86
2022/11/01 06:42:11;;;;;;;1.63;1.48;;;;;;;;;;4974237;28;20121;-88
2022/11/01 06:44:36;;;;;;;4.70;1.83;;;;;;;;;;4988410;28;20030;-85
2022/11/01 06:47:02;;;;;;;1.80;1.30;;;;;;;;;;4990332;28;20384;-87
2022/11/01 06:49:28;;;;;;;1.52;1.00;;;;;;;;;;4985926;28;20034;-87
2022/11/01 06:51:53;;;;;;;5.45;1.27;;;;;;;;;;4970202;28;20026;-87
2022/11/01 06:54:19;;;;;;;3.65;1.25;;;;;;;;;;4971791;28;20405;-85
2022/11/01 06:56:47;;;;;;;1.42;1.17;;;;;;;;;;4976373;28;20038;-87
2022/11/01 06:59:13;;;;;;;5.00;1.15;;;;;;;;;;4993725;28;20023;-87
2022/11/01 07:01:38;;;;;;;3.72;1.38;;;;;;;;;;4996152;28;20014;-88
2022/11/01 07:04:04;;;;;;;5.45;1.38;;;;;;;;;;4973393;28;20033;-87
2022/11/01 07:06:29;;;;;;;3.42;1.38;;;;;;;;;;4993575;28;20034;-86
2022/11/01 07:08:56;;;;;;;4.68;1.10;;;;;;;;;;4967280;28;20042;-85
2022/11/01 07:11:22;;;;;;;1.52;1.42;;;;;;;;;;4992227;28;20117;-86
2022/11/01 07:13:47;;;;;;;2.97;1.50;;;;;;;;;;4988697;28;20114;-87
2022/11/01 07:16:13;;;;;;;7.82;1.65;;;;;;;;;;4989024;28;20037;-87
2022/11/01 07:18:38;;;;;;;2.97;1.60;;;;;;;;;;4973603;28;20045;-86
2022/11/01 07:21:05;;;;;;;3.42;1.70;;;;;;;;;;4991911;28;20026;-87
2022/11/01 07:23:30;;;;;;;3.13;1.27;;;;;;;;;;4986875;28;20085;-86
2022/11/01 07:25:56;;;;;;;4.10;1.50;;;;;;;;;;4992607;28;20404;-87
2022/11/01 07:28:21;;;;;;;1.30;1.20;;;;;;;;;;4971958;28;20057;-86
2022/11/01 07:30:48;;;;;;;2.10;1.33;;;;;;;;;;4972163;28;20030;-87
2022/11/01 07:33:13;;;;;;;4.60;1.10;;;;;;;;;;4966643;28;20030;-86
2022/11/01 07:35:38;;;;;;;4.63;0.77;;;;;;;;;;4970772;28;20030;-86
2022/11/01 07:38:04;;;;;;;0.93;0.80;;;;;;;;;;4990367;28;20031;-86
2022/11/01 07:40:30;;;;;;;0.90;0.90;;;;;;;;;;4987611;28;20034;-87
2022/11/01 07:42:57;;;;;;;1.85;1.30;;;;;;;;;;4969849;28;20033;-87
2022/11/01 07:45:23;;;;;;;7.78;1.25;;;;;;;;;;4962950;28;20077;-87
2022/11/01 07:47:49;;;;;;;0.85;0.70;;;;;;;;;;4991786;28;20437;-86
2022/11/01 07:50:14;;;;;;;1.30;1.20;;;;;;;;;;4992576;28;20121;-87
2022/11/01 07:52:40;;;;;;;0.90;0.70;;;;;;;;;;4974926;28;20485;-87
2022/11/01 07:55:06;;;;;;;1.85;0.65;;;;;;;;;;4971660;28;20050;-87
2022/11/01 07:57:37;;;;;;;4.03;0.98;;;;;;;;;;4987941;28;20027;-88
2022/11/01 08:00:03;;;;;;;0.80;0.60;;;;;;;;;;4968848;28;20031;-87
2022/11/01 08:02:28;;;;;;;0.60;0.60;;;;;;;;;;4975387;28;20014;-88
2022/11/01 08:04:53;;;;;;;0.70;0.70;;;;;;;;;;4975158;28;20022;-87
2022/11/01 08:07:19;;;;;;;1.40;0.68;;;;;;;;;;4993222;28;20075;-87
2022/11/01 08:09:44;;;;;;;1.42;0.73;;;;;;;;;;4988342;28;20114;-88
2022/11/01 08:12:09;;;;;;;1.15;0.43;;;;;;;;;;4969804;28;20018;-87
2022/11/01 08:14:35;;;;;;;0.50;0.50;;;;;;;;;;4974023;28;20018;-88
2022/11/01 08:17:00;;;;;;;0.85;0.40;;;;;;;;;;4975168;28;20029;-87
2022/11/01 08:19:26;;;;;;;0.65;0.32;;;;;;;;;;4991606;28;20027;-88
2022/11/01 08:21:51;;;;;;;0.73;0.70;;;;;;;;;;4972974;28;20027;-87
2022/11/01 08:24:17;;;;;;;2.15;0.50;;;;;;;;;;4992779;28;20112;-88
2022/11/01 08:26:42;;;;;;;0.70;0.50;;;;;;;;;;4995230;28;20034;-86
2022/11/01 08:29:08;;;;;;;2.13;0.63;;;;;;;;;;4990721;28;20041;-86
2022/11/01 08:31:33;;;;;;;0.47;0.47;;;;;;;;;;4989398;28;20053;-87
2022/11/01 08:33:59;;;;;;;1.75;0.70;;;;;;;;;;4968467;28;20063;-89
2022/11/01 08:36:24;;;;;;;3.40;0.75;;;;;;;;;;4973677;28;20071;-88
2022/11/01 08:38:49;;;;;;;0.82;0.82;;;;;;;;;;4989141;28;20022;-88
2022/11/01 08:41:15;;;;;;;1.10;0.80;;;;;;;;;;4992945;28;20025;-86
2022/11/01 08:43:40;;;;;;;1.48;0.50;;;;;;;;;;4973834;28;20101;-86
2022/11/01 08:46:06;;;;;;;0.35;0.35;;;;;;;;;;4976422;28;20357;-85
2022/11/01 08:48:31;;;;;;;0.55;0.40;;;;;;;;;;4970068;28;20015;-85
2022/11/01 08:50:57;;;;;;;2.35;0.55;;;;;;;;;;4971538;28;20027;-84
2022/11/01 08:53:23;;;;;;;0.63;0.63;;;;;;;;;;4995172;28;20027;-84
2022/11/01 08:55:56;;;;;;;2.17;0.65;;;;;;;;;;4985773;28;20035;-84
2022/11/01 08:58:22;;;;;;;0.47;0.43;;;;;;;;;;4989165;28;20090;-86
2022/11/01 09:00:47;;;;;;;1.05;0.57;;;;;;;;;;4966940;28;20027;-88
2022/11/01 09:03:13;;;;;;;2.80;0.85;;;;;;;;;;4968126;28;20043;-87
2022/11/01 09:05:39;;;;;;;8.02;0.75;;;;;;;;;;4968849;28;20135;-84
2022/11/01 09:08:04;;;;;;;0.98;0.40;;;;;;;;;;4967535;28;20474;-86
2022/11/01 09:10:31;;;;;;;2.38;0.60;;;;;;;;;;4972172;28;20109;-87
2022/11/01 09:12:57;;;;;;;1.38;0.73;;;;;;;;;;4968804;28;20102;-84
2022/11/01 09:15:22;;;;;;;0.40;0.40;;;;;;;;;;4971377;28;20055;-86
2022/11/01 09:17:48;;;;;;;1.63;0.75;;;;;;;;;;4967005;28;20027;-87
2022/11/01 09:20:14;;;;;;;0.50;0.50;;;;;;;;;;4968013;28;20034;-86
2022/11/01 09:22:39;;;;;;;0.85;0.50;;;;;;;;;;4973650;28;20046;-83
2022/11/01 09:25:06;;;;;;;1.08;0.50;;;;;;;;;;4981299;28;20031;-85
2022/11/01 09:27:31;;;;;;;0.73;0.43;;;;;;;;;;4974170;28;20053;-85
2022/11/01 09:29:57;;;;;;;0.60;0.60;;;;;;;;;;4990409;28;20477;-85
2022/11/01 09:32:22;;;;;;;1.10;0.60;;;;;;;;;;4974451;28;20033;-85
2022/11/01 09:34:48;;;;;;;1.00;0.60;;;;;;;;;;4972731;28;20030;-85
2022/11/01 09:37:14;;;;;;;0.40;0.40;;;;;;;;;;4981462;28;20042;-85
2022/11/01 09:39:40;;;;;;;0.52;0.32;;;;;;;;;;4977895;28;20026;-87
2022/11/01 09:42:13;;;;;;;0.47;0.47;;;;;;;;;;4977378;28;20049;-87
2022/11/01 09:44:42;;;;;;;0.68;0.50;;;;;;;;;;4981148;28;20030;-87
2022/11/01 09:47:35;;;;;;;1.55;0.63;;;;;;;;;;4969810;28;20034;-87
2022/11/01 09:50:10;;;;;;;0.95;0.45;;;;;;;;;;4965486;28;20390;-87
2022/11/01 09:52:36;;;;;;;0.50;0.50;;;;;;;;;;4973670;28;20114;-87
2022/11/01 09:55:01;;;;;;;0.65;0.57;;;;;;;;;;4960087;28;20064;-87
2022/11/01 09:57:34;;;;;;;0.50;0.38;;;;;;;;;;4972120;28;20027;-87
2022/11/01 10:00:11;;;;;;;0.75;0.47;;;;;;;;;;4981796;28;20026;-87
2022/11/01 10:02:53;;;;;;;0.68;0.40;;;;;;;;;;4978038;28;20092;-86
2022/11/01 10:05:29;;;;;;;3.60;0.87;;;;;;;;;;4979225;28;20031;-87
2022/11/01 10:08:10;;;;;;;3.22;0.50;;;;;;;;;;4977583;28;20257;-87
2022/11/01 10:11:05;;;;;;;2.23;0.60;;;;;;;;;;4956721;28;20481;-86
2022/11/01 10:13:36;;;;;;;3.30;0.90;;;;;;;;;;4979878;28;20280;-85
2022/11/01 10:16:11;;;;;;;0.50;0.50;;;;;;;;;;4975382;28;20031;-86
2022/11/01 10:18:49;;;;;;;0.45;0.40;;;;;;;;;;4978253;28;20035;-86
2022/11/01 10:21:15;;;;;;;4.82;0.93;;;;;;;;;;4963911;28;20038;-86
2022/11/01 10:23:48;;;;;;;1.27;0.60;;;;;;;;;;4959730;28;20027;-86
2022/11/01 10:26:25;;;;;;;4.10;0.95;;;;;;;;;;4974817;28;20026;-85
2022/11/01 10:29:12;;;;;;;2.30;0.60;;;;;;;;;;4981942;28;20050;-85
2022/11/01 10:31:43;;;;;;;0.70;0.70;;;;;;;;;;4962039;28;20081;-86
2022/11/01 10:34:32;;;;;;;4.10;0.80;;;;;;;;;;4954062;28;20121;-83
2022/11/01 10:37:17;;;;;;;1.25;0.65;;;;;;;;;;4976881;28;20030;-83
2022/11/01 10:39:54;;;;;;;1.70;0.90;;;;;;;;;;4967819;28;20035;-83
2022/11/01 10:42:20;;;;;;;1.40;0.70;;;;;;;;;;4949927;28;20102;-83
2022/11/01 10:44:53;;;;;;;3.92;0.80;;;;;;;;;;4979292;28;20652;-83
2022/11/01 10:47:20;;;;;;;3.35;0.82;;;;;;;;;;4975086;28;20113;-83
2022/11/01 10:50:10;;;;;;;2.50;1.08;;;;;;;;;;4992368;28;20022;-85
2022/11/01 10:53:04;;;;;;;2.05;0.85;;;;;;;;;;4990620;28;20026;-83
2022/11/01 10:55:36;;;;;;;2.33;0.90;;;;;;;;;;4970912;28;20034;-83
2022/11/01 10:58:07;;;;;;;1.55;0.82;;;;;;;;;;4969578;28;20038;-83
2022/11/01 11:00:35;;;;;;;1.13;0.90;;;;;;;;;;4966459;28;20113;-83
2022/11/01 11:03:26;;;;;;;2.83;0.80;;;;;;;;;;4988226;28;20123;-83
2022/11/01 11:05:54;;;;;;;1.10;0.60;;;;;;;;;;4969111;28;20092;-83
2022/11/01 11:08:22;;;;;;;2.08;1.10;;;;;;;;;;4993556;28;20093;-84
2022/11/01 11:10:49;;;;;;;10.88;1.05;;;;;;;;;;4993908;28;20062;-84
2022/11/01 11:13:20;;;;;;;2.85;1.05;;;;;;;;;;4974207;28;20030;-83
2022/11/01 11:15:51;;;;;;;1.33;0.90;;;;;;;;;;4992799;28;20506;-82
2022/11/01 11:18:23;;;;;;;1.33;0.98;;;;;;;;;;4993327;28;20347;-82
2022/11/01 11:21:01;;;;;;;1.70;0.80;;;;;;;;;;4972210;28;20533;-83
2022/11/01 11:23:29;;;;;;;2.80;1.20;;;;;;;;;;4973780;28;20081;-82
2022/11/01 11:26:03;;;;;;;2.28;1.00;;;;;;;;;;4977511;28;20034;-82
2022/11/01 11:28:33;;;;;;;2.15;1.10;;;;;;;;;;4990240;28;20030;-82
2022/11/01 11:31:20;;;;;;;2.35;0.80;;;;;;;;;;4966826;28;20088;-83
2022/11/01 11:33:55;;;;;;;1.77;0.95;;;;;;;;;;4985836;28;20035;-84
2022/11/01 11:36:28;;;;;;;1.67;0.88;;;;;;;;;;4972841;28;20053;-84
2022/11/01 11:38:58;;;;;;;0.70;0.70;;;;;;;;;;4978979;28;20030;-87
2022/11/01 11:41:30;;;;;;;2.15;1.00;;;;;;;;;;4971294;28;20030;-87
2022/11/01 11:43:56;;;;;;;1.58;0.85;;;;;;;;;;4965941;28;20038;-85
2022/11/01 11:46:23;;;;;;;2.97;1.35;;;;;;;;;;4974351;28;20139;-87
2022/11/01 11:48:57;;;;;;;1.35;0.75;;;;;;;;;;4990460;28;20022;-86
2022/11/01 11:51:27;;;;;;;3.28;0.85;;;;;;;;;;4988430;28;20026;-87
2022/11/01 11:54:23;;;;;;;3.72;1.00;;;;;;;;;;4989531;23;20083;-85
2022/11/01 12:00:25;;;;;;;1.17;1.02;;;;;;;;;;4972528;28;20030;-85
2022/11/01 12:02:51;;;;;;;3.83;1.20;;;;;;;;;;4985867;28;20026;-85
2022/11/01 12:05:21;;;;;;;3.15;1.42;;;;;;;;;;4991841;28;20113;-85
2022/11/01 12:07:53;;;;;;;4.88;1.40;;;;;;;;;;5002833;23;20519;-87
2022/11/01 12:10:44;;;;;;;6.93;1.23;;;;;;;;;;5014983;28;20057;-86
2022/11/01 12:13:32;;;;;;;5.53;1.58;;;;;;;;;;5002126;28;20541;-86
2022/11/01 12:16:18;;;;;;;3.72;1.20;;;;;;;;;;5021976;28;20029;-86
2022/11/01 12:18:57;;;;;;;4.97;1.60;;;;;;;;;;5032534;28;20100;-87
2022/11/01 12:21:27;;;;;;;3.22;1.20;;;;;;;;;;5023035;28;20101;-86
2022/11/01 12:24:00;;;;;;;4.85;1.90;;;;;;;;;;5014995;28;20026;-87
2022/11/01 12:26:29;;;;;;;3.65;1.10;;;;;;;;;;5024449;28;20029;-86
2022/11/01 12:29:05;;;;;;;3.58;1.08;;;;;;;;;;5008094;28;20029;-88
2022/11/01 12:31:30;;;;;;;3.65;1.00;;;;;;;;;;5010464;28;20021;-86
2022/11/01 12:34:11;;;;;;;3.80;1.52;;;;;;;;;;5024939;28;20025;-87
2022/11/01 12:37:01;;;;;;;4.93;1.45;;;;;;;;;;5023760;28;20017;-87
2022/11/01 12:40:01;;;;;;;4.95;1.65;;;;;;;;;;5008108;28;20022;-87
2022/11/01 12:42:44;;;;;;;2.42;1.00;;;;;;;;;;5023439;28;20048;-87
2022/11/01 12:45:12;;;;;;;4.78;1.38;;;;;;;;;;5021657;28;20025;-87
2022/11/01 12:47:43;;;;;;;2.38;1.02;;;;;;;;;;5005819;28;20047;-86
2022/11/01 12:50:49;;;;;;;6.88;1.13;;;;;;;;;;5004221;28;20472;-87
2022/11/01 12:53:21;;;;;;;4.22;1.15;;;;;;;;;;5004528;28;20076;-87
2022/11/01 12:55:47;;;;;;;2.50;1.13;;;;;;;;;;5008381;28;20031;-88
2022/11/01 12:58:20;;;;;;;5.20;1.08;;;;;;;;;;5023660;28;20026;-89
2022/11/01 13:01:09;;;;;;;4.40;1.45;;;;;;;;;;5021935;28;20533;-88
2022/11/01 13:03:59;;;;;;;7.97;1.40;;;;;;;;;;5002074;28;20029;-88
2022/11/01 13:06:43;;;;;;;2.60;1.10;;;;;;;;;;5017634;28;20025;-89
2022/11/01 13:09:29;;;;;;;4.03;0.90;;;;;;;;;;5023508;28;20490;-88
2022/11/01 13:12:24;;;;;;;2.67;1.05;;;;;;;;;;5019466;28;20487;-86
2022/11/01 13:15:01;;;;;;;2.58;0.98;;;;;;;;;;5017931;28;20036;-85
2022/11/01 13:17:49;;;;;;;4.65;1.15;;;;;;;;;;5016874;28;20028;-87
2022/11/01 13:20:30;;;;;;;12.10;1.50;;;;;;;;;;5020139;28;20029;-85
2022/11/01 13:23:05;;;;;;;2.80;1.08;;;;;;;;;;5028890;28;20036;-85
2022/11/01 13:25:46;;;;;;;3.80;1.02;;;;;;;;;;5011435;28;20426;-84
2022/11/01 13:28:32;;;;;;;23.23;1.77;;;;;;;;;;5016574;28;20022;-85
2022/11/01 13:31:17;;;;;;;3.65;1.20;;;;;;;;;;5021572;28;20044;-85
2022/11/01 13:34:17;;;;;;;8.63;1.40;;;;;;;;;;5025981;28;20033;-84
2022/11/01 13:36:58;;;;;;;4.43;0.95;;;;;;;;;;5020659;28;20083;-85
2022/11/01 13:39:48;;;;;;;2.08;0.90;;;;;;;;;;5027254;28;20049;-85
2022/11/01 13:42:16;;;;;;;2.58;0.90;;;;;;;;;;5023718;28;20108;-86
2022/11/01 13:45:06;;;;;;;2.70;0.93;;;;;;;;;;5026850;28;20032;-85
2022/11/01 13:47:55;;;;;;;2.13;0.88;;;;;;;;;;5028205;28;20505;-86
2022/11/01 13:50:35;;;;;;;3.35;1.00;;;;;;;;;;5020748;28;20050;-86
2022/11/01 13:53:30;;;;;;;4.35;1.00;;;;;;;;;;5009495;28;21495;-85
2022/11/01 13:56:19;;;;;;;4.70;1.38;;;;;;;;;;5012407;28;20113;-85
2022/11/01 13:58:45;;;;;;;3.83;1.17;;;;;;;;;;5025539;28;20613;-84
2022/11/01 14:01:36;;;;;;;4.75;1.20;;;;;;;;;;5025042;28;20491;-86
2022/11/01 14:04:11;;;;;;;2.42;1.13;;;;;;;;;;5012623;28;20712;-87
2022/11/01 14:06:38;;;;;;;2.92;1.15;;;;;;;;;;5026996;28;20065;-87
2022/11/01 14:09:22;;;;;;;4.38;1.08;;;;;;;;;;5026716;28;21380;-85
2022/11/01 14:11:48;;;;;;;2.75;1.35;;;;;;;;;;5028939;28;20029;-86
2022/11/01 14:14:29;;;;;;;1.98;0.75;;;;;;;;;;5018267;28;20022;-84
2022/11/01 14:17:22;;;;;;;3.25;1.42;;;;;;;;;;5029860;28;20053;-84
2022/11/01 14:19:59;;;;;;;6.80;1.40;;;;;;;;;;5028766;28;20026;-85
2022/11/01 14:22:28;;;;;;;2.83;1.10;;;;;;;;;;5029615;28;20045;-85
2022/11/01 14:24:58;;;;;;;2.53;1.20;;;;;;;;;;5028221;28;20027;-86
2022/11/01 14:27:27;;;;;;;2.28;1.27;;;;;;;;;;5014571;28;20115;-85
2022/11/01 14:29:53;;;;;;;3.08;2.03;;;;;;;;;;5028590;28;20021;-85
2022/11/01 14:32:22;;;;;;;4.75;1.30;;;;;;;;;;5028763;28;20029;-86
2022/11/01 14:34:58;;;;;;;6.28;1.33;;;;;;;;;;5025468;28;20036;-86
2022/11/01 14:37:27;;;;;;;3.00;1.25;;;;;;;;;;5030930;28;20025;-86
2022/11/01 14:40:19;;;;;;;9.43;1.45;;;;;;;;;;5018982;28;20048;-87
2022/11/01 14:42:46;;;;;;;2.10;1.10;;;;;;;;;;5015706;28;20473;-85
2022/11/01 14:45:23;;;;;;;2.78;1.08;;;;;;;;;;5027205;28;20037;-84
2022/11/01 14:47:51;;;;;;;6.57;1.42;;;;;;;;;;5030371;28;20025;-85
2022/11/01 14:50:31;;;;;;;5.57;1.23;;;;;;;;;;5025662;28;20073;-87
2022/11/01 14:53:08;;;;;;;8.98;1.58;;;;;;;;;;5023643;28;20022;-88
2022/11/01 14:55:35;;;;;;;6.75;1.13;;;;;;;;;;5038692;28;20096;-88
2022/11/01 14:58:14;;;;;;;6.63;1.17;;;;;;;;;;5046337;28;20029;-87
2022/11/01 15:00:40;;;;;;;4.57;1.42;;;;;;;;;;5051577;28;20020;-86
2022/11/01 15:03:08;;;;;;;5.47;1.23;;;;;;;;;;5052496;28;20021;-86
2022/11/01 15:05:42;;;;;;;4.28;1.50;;;;;;;;;;5040488;28;20026;-86
2022/11/01 15:08:39;;;;;;;1.35;0.90;;;;;;;;;;5039951;28;20025;-87
2022/11/01 15:11:34;;;;;;;9.15;1.33;;;;;;;;;;5032067;28;20048;-89
2022/11/01 15:14:04;;;;;;;4.03;1.00;;;;;;;;;;5032584;28;20029;-88
2022/11/01 15:16:34;;;;;;;2.88;1.00;;;;;;;;;;5028759;28;20037;-87